sensor_id;sensor_type;location;lat;lon;timestamp;pressure;altitude;pressure_sealevel;temperature;humidity
64827;BME280;51265;53.972;12.286;2024-01-06T00:02:06;99929.44;;;-1.79;100.00
64827;BME280;51265;53.972;12.286;2024-01-06T00:04:32;99930.72;;;-1.82;100.00
64827;BME280;51265;53.972;12.286;2024-01-06T00:06:58;99932.59;;;-1.82;100.00
64827;BME280;51265;53.972;12.286;2024-01-06T00:09:25;99922.88;;;-1.83;100.00
64827;BME280;51265;53.972;12.286;2024-01-06T00:11:51;99936.22;;;-1.77;100.00
64827;BME280;51265;53.972;12.286;2024-01-06T00:14:17;99946.94;;;-1.70;100.00
64827;BME280;51265;53.972;12.286;2024-01-06T00:16:43;99941.88;;;-1.78;100.00
64827;BME280;51265;53.972;12.286;2024-01-06T00:19:09;99934.47;;;-1.83;100.00
64827;BME280;51265;53.972;12.286;2024-01-06T00:21:35;99943.03;;;-1.74;100.00
64827;BME280;51265;53.972;12.286;2024-01-06T00:24:01;99947.63;;;-1.74;100.00
64827;BME280;51265;53.972;12.286;2024-01-06T00:26:27;99951.03;;;-1.79;100.00
64827;BME280;51265;53.972;12.286;2024-01-06T00:28:54;99954.56;;;-1.67;100.00
64827;BME280;51265;53.972;12.286;2024-01-06T00:31:20;99946.81;;;-1.75;100.00
64827;BME280;51265;53.972;12.286;2024-01-06T00:33:46;99948.44;;;-1.74;100.00
64827;BME280;51265;53.972;12.286;2024-01-06T00:36:12;99946.81;;;-1.75;100.00
64827;BME280;51265;53.972;12.286;2024-01-06T00:38:38;99949.63;;;-1.82;100.00
64827;BME280;51265;53.972;12.286;2024-01-06T00:41:05;99953.72;;;-1.79;100.00
64827;BME280;51265;53.972;12.286;2024-01-06T00:43:31;99953.50;;;-1.78;100.00
64827;BME280;51265;53.972;12.286;2024-01-06T00:45:57;99962.03;;;-1.81;100.00
64827;BME280;51265;53.972;12.286;2024-01-06T00:48:23;99971.69;;;-1.73;100.00
64827;BME280;51265;53.972;12.286;2024-01-06T00:50:49;99969.09;;;-1.68;100.00
64827;BME280;51265;53.972;12.286;2024-01-06T00:53:16;99973.09;;;-1.70;100.00
64827;BME280;51265;53.972;12.286;2024-01-06T00:55:42;99968.97;;;-1.73;100.00
64827;BME280;51265;53.972;12.286;2024-01-06T00:58:09;99966.53;;;-1.74;100.00
64827;BME280;51265;53.972;12.286;2024-01-06T01:00:35;99979.91;;;-1.68;100.00
64827;BME280;51265;53.972;12.286;2024-01-06T01:03:01;99963.47;;;-1.78;100.00
64827;BME280;51265;53.972;12.286;2024-01-06T01:05:28;99980.84;;;-1.74;100.00
64827;BME280;51265;53.972;12.286;2024-01-06T01:07:54;99976.63;;;-1.70;100.00
64827;BME280;51265;53.972;12.286;2024-01-06T01:10:20;99976.97;;;-1.66;100.00
64827;BME280;51265;53.972;12.286;2024-01-06T01:12:46;99985.19;;;-1.61;100.00
64827;BME280;51265;53.972;12.286;2024-01-06T01:15:12;99986.97;;;-1.67;100.00
64827;BME280;51265;53.972;12.286;2024-01-06T01:17:39;99986.25;;;-1.74;100.00
64827;BME280;51265;53.972;12.286;2024-01-06T01:20:05;99988.13;;;-1.74;100.00
64827;BME280;51265;53.972;12.286;2024-01-06T01:22:31;99991.88;;;-1.64;100.00
64827;BME280;51265;53.972;12.286;2024-01-06T01:24:58;100001.75;;;-1.58;100.00
64827;BME280;51265;53.972;12.286;2024-01-06T01:27:24;100000.22;;;-1.65;100.00
64827;BME280;51265;53.972;12.286;2024-01-06T01:29:50;99986.97;;;-1.67;100.00
64827;BME280;51265;53.972;12.286;2024-01-06T01:32:18;99982.94;;;-1.64;100.00
64827;BME280;51265;53.972;12.286;2024-01-06T01:34:45;99982.94;;;-1.64;100.00
64827;BME280;51265;53.972;12.286;2024-01-06T01:37:11;99981.56;;;-1.67;100.00
64827;BME280;51265;53.972;12.286;2024-01-06T01:39:37;99971.69;;;-1.73;100.00
64827;BME280;51265;53.972;12.286;2024-01-06T01:42:03;99975.44;;;-1.74;100.00
64827;BME280;51265;53.972;12.286;2024-01-06T01:44:29;99979.06;;;-1.80;100.00
64827;BME280;51265;53.972;12.286;2024-01-06T01:46:56;99989.03;;;-1.81;100.00
64827;BME280;51265;53.972;12.286;2024-01-06T01:49:22;99996.09;;;-1.80;100.00
64827;BME280;51265;53.972;12.286;2024-01-06T01:51:48;99997.03;;;-1.74;100.00
64827;BME280;51265;53.972;12.286;2024-01-06T01:54:15;99995.75;;;-1.83;100.00
64827;BME280;51265;53.972;12.286;2024-01-06T01:56:42;100008.06;;;-1.87;100.00
64827;BME280;51265;53.972;12.286;2024-01-06T01:59:12;99997.25;;;-1.87;100.00
64827;BME280;51265;53.972;12.286;2024-01-06T02:01:40;100016.72;;;-1.85;100.00
64827;BME280;51265;53.972;12.286;2024-01-06T02:04:06;100009.59;;;-1.91;100.00
64827;BME280;51265;53.972;12.286;2024-01-06T02:06:33;100013.47;;;-1.87;100.00
64827;BME280;51265;53.972;12.286;2024-01-06T02:08:59;100013.56;;;-1.94;100.00
64827;BME280;51265;53.972;12.286;2024-01-06T02:11:26;100015.44;;;-1.94;100.00
64827;BME280;51265;53.972;12.286;2024-01-06T02:13:52;100018.13;;;-1.94;100.00
64827;BME280;51265;53.972;12.286;2024-01-06T02:16:18;100017.69;;;-1.91;100.00
64827;BME280;51265;53.972;12.286;2024-01-06T02:18:44;100024.25;;;-1.87;100.00
64827;BME280;51265;53.972;12.286;2024-01-06T02:21:10;100016.38;;;-1.89;100.00
64827;BME280;51265;53.972;12.286;2024-01-06T02:23:36;100020.94;;;-1.89;100.00
64827;BME280;51265;53.972;12.286;2024-01-06T02:26:03;100032.81;;;-1.90;100.00
64827;BME280;51265;53.972;12.286;2024-01-06T02:28:29;100039.63;;;-1.88;100.00
64827;BME280;51265;53.972;12.286;2024-01-06T02:30:55;100036.25;;;-1.83;100.00
64827;BME280;51265;53.972;12.286;2024-01-06T02:33:21;100050.75;;;-1.84;100.00
64827;BME280;51265;53.972;12.286;2024-01-06T02:35:50;100047.03;;;-1.83;100.00
64827;BME280;51265;53.972;12.286;2024-01-06T02:38:16;100051.25;;;-1.87;100.00
64827;BME280;51265;53.972;12.286;2024-01-06T02:40:42;100051.50;;;-1.77;100.00
64827;BME280;51265;53.972;12.286;2024-01-06T02:43:09;100060.53;;;-1.71;100.00
64827;BME280;51265;53.972;12.286;2024-01-06T02:45:36;100065.13;;;-1.72;100.00
64827;BME280;51265;53.972;12.286;2024-01-06T02:48:02;100063.03;;;-1.70;100.00
64827;BME280;51265;53.972;12.286;2024-01-06T02:50:28;100055.84;;;-1.76;100.00
64827;BME280;51265;53.972;12.286;2024-01-06T02:52:54;100059.72;;;-1.72;100.00
64827;BME280;51265;53.972;12.286;2024-01-06T02:55:20;100062.06;;;-1.64;100.00
64827;BME280;51265;53.972;12.286;2024-01-06T02:57:46;100047.28;;;-1.73;100.00
64827;BME280;51265;53.972;12.286;2024-01-06T03:00:13;100051.75;;;-1.67;100.00
64827;BME280;51265;53.972;12.286;2024-01-06T03:02:39;100047.28;;;-1.73;100.00
64827;BME280;51265;53.972;12.286;2024-01-06T03:05:09;100057.38;;;-1.68;100.00
64827;BME280;51265;53.972;12.286;2024-01-06T03:07:35;100042.00;;;-1.80;100.00
64827;BME280;51265;53.972;12.286;2024-01-06T03:10:01;100044.09;;;-1.82;100.00
64827;BME280;51265;53.972;12.286;2024-01-06T03:12:28;100053.00;;;-1.81;100.00
64827;BME280;51265;53.972;12.286;2024-01-06T03:14:54;100060.66;;;-1.78;100.00
64827;BME280;51265;53.972;12.286;2024-01-06T03:17:20;100056.31;;;-1.79;100.00
64827;BME280;51265;53.972;12.286;2024-01-06T03:19:47;100060.28;;;-1.82;100.00
64827;BME280;51265;53.972;12.286;2024-01-06T03:22:13;100054.88;;;-1.82;100.00
64827;BME280;51265;53.972;12.286;2024-01-06T03:24:40;100058.53;;;-1.76;100.00
64827;BME280;51265;53.972;12.286;2024-01-06T03:27:06;100057.72;;;-1.77;100.00
64827;BME280;51265;53.972;12.286;2024-01-06T03:29:32;100066.78;;;-1.71;100.00
64827;BME280;51265;53.972;12.286;2024-01-06T03:31:58;100068.41;;;-1.70;100.00
64827;BME280;51265;53.972;12.286;2024-01-06T03:34:24;100058.06;;;-1.73;100.00
64827;BME280;51265;53.972;12.286;2024-01-06T03:36:50;100062.66;;;-1.73;100.00
64827;BME280;51265;53.972;12.286;2024-01-06T03:39:17;100063.94;;;-1.76;100.00
64827;BME280;51265;53.972;12.286;2024-01-06T03:41:43;100069.34;;;-1.76;100.00
64827;BME280;51265;53.972;12.286;2024-01-06T03:44:09;100081.81;;;-1.75;100.00
64827;BME280;51265;53.972;12.286;2024-01-06T03:46:35;100087.44;;;-1.65;100.00
64827;BME280;51265;53.972;12.286;2024-01-06T03:49:01;100088.38;;;-1.71;100.00
64827;BME280;51265;53.972;12.286;2024-01-06T03:51:28;100098.56;;;-1.73;100.00
64827;BME280;51265;53.972;12.286;2024-01-06T03:53:54;100094.47;;;-1.76;100.00
64827;BME280;51265;53.972;12.286;2024-01-06T03:56:20;100094.69;;;-1.77;100.00
64827;BME280;51265;53.972;12.286;2024-01-06T03:58:46;100098.91;;;-1.81;100.00
64827;BME280;51265;53.972;12.286;2024-01-06T04:01:12;100097.13;;;-1.87;100.00
64827;BME280;51265;53.972;12.286;2024-01-06T04:03:39;100105.13;;;-1.81;100.00
64827;BME280;51265;53.972;12.286;2024-01-06T04:06:08;100107.59;;;-1.79;100.00
64827;BME280;51265;53.972;12.286;2024-01-06T04:08:35;100099.16;;;-1.83;100.00
64827;BME280;51265;53.972;12.286;2024-01-06T04:11:02;100093.25;;;-1.91;100.00
64827;BME280;51265;53.972;12.286;2024-01-06T04:13:28;100108.97;;;-1.88;100.00
64827;BME280;51265;53.972;12.286;2024-01-06T04:15:54;100104.31;;;-1.81;100.00
64827;BME280;51265;53.972;12.286;2024-01-06T04:18:20;100096.06;;;-1.86;100.00
64827;BME280;51265;53.972;12.286;2024-01-06T04:20:47;100100.88;;;-1.88;100.00
64827;BME280;51265;53.972;12.286;2024-01-06T04:23:13;100099.34;;;-1.84;100.00
64827;BME280;51265;53.972;12.286;2024-01-06T04:25:39;100098.16;;;-1.88;100.00
64827;BME280;51265;53.972;12.286;2024-01-06T04:28:05;100104.88;;;-1.91;100.00
64827;BME280;51265;53.972;12.286;2024-01-06T04:30:31;100108.63;;;-1.80;100.00
64827;BME280;51265;53.972;12.286;2024-01-06T04:32:57;100108.50;;;-1.85;100.00
64827;BME280;51265;53.972;12.286;2024-01-06T04:35:25;100100.88;;;-1.88;100.00
64827;BME280;51265;53.972;12.286;2024-01-06T04:37:51;100106.50;;;-1.90;100.00
64827;BME280;51265;53.972;12.286;2024-01-06T04:40:17;100114.38;;;-1.88;100.00
64827;BME280;51265;53.972;12.286;2024-01-06T04:42:43;100119.91;;;-1.83;100.00
64827;BME280;51265;53.972;12.286;2024-01-06T04:45:10;100116.28;;;-1.77;100.00
64827;BME280;51265;53.972;12.286;2024-01-06T04:47:36;100109.69;;;-1.81;100.00
64827;BME280;51265;53.972;12.286;2024-01-06T04:50:02;100118.88;;;-1.82;100.00
64827;BME280;51265;53.972;12.286;2024-01-06T04:52:29;100123.81;;;-1.79;100.00
64827;BME280;51265;53.972;12.286;2024-01-06T04:54:55;100134.28;;;-1.71;100.00
64827;BME280;51265;53.972;12.286;2024-01-06T04:57:22;100134.50;;;-1.72;100.00
64827;BME280;51265;53.972;12.286;2024-01-06T04:59:48;100139.91;;;-1.72;100.00
64827;BME280;51265;53.972;12.286;2024-01-06T05:02:15;100137.88;;;-1.77;100.00
64827;BME280;51265;53.972;12.286;2024-01-06T05:04:41;100147.41;;;-1.74;100.00
64827;BME280;51265;53.972;12.286;2024-01-06T05:07:07;100146.44;;;-1.80;100.00
64827;BME280;51265;53.972;12.286;2024-01-06T05:09:33;100141.19;;;-1.75;100.00
64827;BME280;51265;53.972;12.286;2024-01-06T05:11:59;100140.31;;;-1.87;100.00
64827;BME280;51265;53.972;12.286;2024-01-06T05:14:26;100150.06;;;-1.86;100.00
64827;BME280;51265;53.972;12.286;2024-01-06T05:16:52;100140.91;;;-1.85;100.00
64827;BME280;51265;53.972;12.286;2024-01-06T05:19:18;100159.47;;;-1.77;100.00
64827;BME280;51265;53.972;12.286;2024-01-06T05:21:47;100151.69;;;-1.85;100.00
64827;BME280;51265;53.972;12.286;2024-01-06T05:24:13;100154.19;;;-1.84;100.00
64827;BME280;51265;53.972;12.286;2024-01-06T05:26:40;100164.13;;;-1.84;100.00
64827;BME280;51265;53.972;12.286;2024-01-06T05:29:06;100164.13;;;-1.84;100.00
64827;BME280;51265;53.972;12.286;2024-01-06T05:31:32;100175.31;;;-1.81;100.00
64827;BME280;51265;53.972;12.286;2024-01-06T05:33:58;100174.16;;;-1.73;100.00
64827;BME280;51265;53.972;12.286;2024-01-06T05:36:24;100181.09;;;-1.77;100.00
64827;BME280;51265;53.972;12.286;2024-01-06T05:38:51;100180.19;;;-1.71;100.00
64827;BME280;51265;53.972;12.286;2024-01-06T05:41:17;100185.09;;;-1.68;100.00
64827;BME280;51265;53.972;12.286;2024-01-06T05:43:43;100192.63;;;-1.70;100.00
64827;BME280;51265;53.972;12.286;2024-01-06T05:46:09;100200.13;;;-1.72;100.00
64827;BME280;51265;53.972;12.286;2024-01-06T05:48:36;100194.72;;;-1.72;100.00
64827;BME280;51265;53.972;12.286;2024-01-06T05:51:06;100197.41;;;-1.72;100.00
64827;BME280;51265;53.972;12.286;2024-01-06T05:53:32;100210.91;;;-1.72;100.00
64827;BME280;51265;53.972;12.286;2024-01-06T05:55:58;100203.88;;;-1.73;100.00
64827;BME280;51265;53.972;12.286;2024-01-06T05:58:24;100210.41;;;-1.81;100.00
64827;BME280;51265;53.972;12.286;2024-01-06T06:00:50;100215.59;;;-1.79;100.00
64827;BME280;51265;53.972;12.286;2024-01-06T06:03:17;100224.56;;;-1.67;100.00
64827;BME280;51265;53.972;12.286;2024-01-06T06:05:43;100220.94;;;-1.61;100.00
64827;BME280;51265;53.972;12.286;2024-01-06T06:08:09;100214.09;;;-1.75;100.00
64827;BME280;51265;53.972;12.286;2024-01-06T06:10:35;100227.94;;;-1.71;100.00
64827;BME280;51265;53.972;12.286;2024-01-06T06:13:17;100226.28;;;-1.72;100.00
64827;BME280;51265;53.972;12.286;2024-01-06T06:15:44;100225.09;;;-1.77;100.00
64827;BME280;51265;53.972;12.286;2024-01-06T06:18:10;100237.91;;;-1.72;100.00
64827;BME280;51265;53.972;12.286;2024-01-06T06:20:36;100239.09;;;-1.68;100.00
64827;BME280;51265;53.972;12.286;2024-01-06T06:23:02;100229.97;;;-1.67;100.00
64827;BME280;51265;53.972;12.286;2024-01-06T06:25:29;100229.22;;;-1.74;100.00
64827;BME280;51265;53.972;12.286;2024-01-06T06:27:55;100236.88;;;-1.71;100.00
64827;BME280;51265;53.972;12.286;2024-01-06T06:30:21;100245.56;;;-1.69;100.00
64827;BME280;51265;53.972;12.286;2024-01-06T06:32:47;100248.88;;;-1.67;100.00
64827;BME280;51265;53.972;12.286;2024-01-06T06:35:13;100251.72;;;-1.62;100.00
64827;BME280;51265;53.972;12.286;2024-01-06T06:37:39;100245.69;;;-1.64;100.00
64827;BME280;51265;53.972;12.286;2024-01-06T06:40:06;100247.81;;;-1.66;100.00
64827;BME280;51265;53.972;12.286;2024-01-06T06:42:32;100257.69;;;-1.60;100.00
64827;BME280;51265;53.972;12.286;2024-01-06T06:44:58;100263.72;;;-1.58;100.00
64827;BME280;51265;53.972;12.286;2024-01-06T06:47:24;100266.53;;;-1.53;100.00
64827;BME280;51265;53.972;12.286;2024-01-06T06:49:51;100261.09;;;-1.64;100.00
64827;BME280;51265;53.972;12.286;2024-01-06T06:52:17;100267.91;;;-1.62;100.00
64827;BME280;51265;53.972;12.286;2024-01-06T06:54:43;100276.28;;;-1.52;100.00
64827;BME280;51265;53.972;12.286;2024-01-06T06:57:09;100270.88;;;-1.52;100.00
64827;BME280;51265;53.972;12.286;2024-01-06T06:59:35;100269.25;;;-1.53;100.00
64827;BME280;51265;53.972;12.286;2024-01-06T07:02:02;100277.84;;;-1.44;100.00
64827;BME280;51265;53.972;12.286;2024-01-06T07:04:28;100279.13;;;-1.46;100.00
64827;BME280;51265;53.972;12.286;2024-01-06T07:06:54;100289.03;;;-1.40;100.00
64827;BME280;51265;53.972;12.286;2024-01-06T07:09:20;100284.53;;;-1.46;100.00
64827;BME280;51265;53.972;12.286;2024-01-06T07:11:49;100276.28;;;-1.52;100.00
64827;BME280;51265;53.972;12.286;2024-01-06T07:14:16;100270.88;;;-1.52;100.00
64827;BME280;51265;53.972;12.286;2024-01-06T07:16:42;100278.59;;;-1.67;100.00
64827;BME280;51265;53.972;12.286;2024-01-06T07:19:08;100286.38;;;-1.59;100.00
64827;BME280;51265;53.972;12.286;2024-01-06T07:21:34;100289.28;;;-1.60;100.00
64827;BME280;51265;53.972;12.286;2024-01-06T07:24:01;100297.06;;;-1.52;100.00
64827;BME280;51265;53.972;12.286;2024-01-06T07:26:29;100300.78;;;-1.65;100.00
64827;BME280;51265;53.972;12.286;2024-01-06T07:28:56;100299.13;;;-1.66;100.00
64827;BME280;51265;53.972;12.286;2024-01-06T07:31:22;100302.28;;;-1.69;100.00
64827;BME280;51265;53.972;12.286;2024-01-06T07:33:48;100305.59;;;-1.67;100.00
64827;BME280;51265;53.972;12.286;2024-01-06T07:36:14;100304.53;;;-1.66;100.00
64827;BME280;51265;53.972;12.286;2024-01-06T07:38:42;100303.91;;;-1.68;100.00
64827;BME280;51265;53.972;12.286;2024-01-06T07:41:08;100303.16;;;-1.57;100.00
64827;BME280;51265;53.972;12.286;2024-01-06T07:43:34;100303.09;;;-1.68;100.00
64827;BME280;51265;53.972;12.286;2024-01-06T07:46:00;100308.72;;;-1.70;100.00
64827;BME280;51265;53.972;12.286;2024-01-06T07:48:26;100303.78;;;-1.73;100.00
64827;BME280;51265;53.972;12.286;2024-01-06T07:50:52;100317.28;;;-1.73;100.00
64827;BME280;51265;53.972;12.286;2024-01-06T07:53:19;100322.22;;;-1.70;100.00
64827;BME280;51265;53.972;12.286;2024-01-06T07:55:45;100317.41;;;-1.68;100.00
64827;BME280;51265;53.972;12.286;2024-01-06T07:58:11;100330.47;;;-1.65;100.00
64827;BME280;51265;53.972;12.286;2024-01-06T08:00:42;100326.28;;;-1.61;100.00
64827;BME280;51265;53.972;12.286;2024-01-06T08:03:10;100332.44;;;-1.54;100.00
64827;BME280;51265;53.972;12.286;2024-01-06T08:05:37;100337.53;;;-1.45;100.00
64827;BME280;51265;53.972;12.286;2024-01-06T08:08:04;100333.31;;;-1.41;100.00
64827;BME280;51265;53.972;12.286;2024-01-06T08:10:30;100332.69;;;-1.43;100.00
64827;BME280;51265;53.972;12.286;2024-01-06T08:12:57;100335.41;;;-1.43;100.00
64827;BME280;51265;53.972;12.286;2024-01-06T08:15:23;100330.44;;;-1.46;100.00
64827;BME280;51265;53.972;12.286;2024-01-06T08:17:49;100317.03;;;-1.53;100.00
64827;BME280;51265;53.972;12.286;2024-01-06T08:20:15;100326.25;;;-1.42;100.00
64827;BME280;51265;53.972;12.286;2024-01-06T08:22:41;100336.59;;;-1.39;100.00
64827;BME280;51265;53.972;12.286;2024-01-06T08:25:07;100338.47;;;-1.40;100.00
64827;BME280;51265;53.972;12.286;2024-01-06T08:27:34;100342.13;;;-1.34;100.00
64827;BME280;51265;53.972;12.286;2024-01-06T08:30:00;100347.53;;;-1.34;100.00
64827;BME280;51265;53.972;12.286;2024-01-06T08:32:27;100343.19;;;-1.35;100.00
64827;BME280;51265;53.972;12.286;2024-01-06T08:34:53;100343.94;;;-1.28;100.00
64827;BME280;51265;53.972;12.286;2024-01-06T08:37:19;100348.22;;;-1.20;100.00
64827;BME280;51265;53.972;12.286;2024-01-06T08:39:45;100342.00;;;-1.21;100.00
64827;BME280;51265;53.972;12.286;2024-01-06T08:42:12;100346.19;;;-1.25;100.00
64827;BME280;51265;53.972;12.286;2024-01-06T08:44:38;100354.00;;;-1.17;100.00
64827;BME280;51265;53.972;12.286;2024-01-06T08:47:04;100349.78;;;-1.13;100.00
64827;BME280;51265;53.972;12.286;2024-01-06T08:49:30;100349.31;;;-1.10;100.00
64827;BME280;51265;53.972;12.286;2024-01-06T08:51:58;100353.06;;;-1.11;100.00
64827;BME280;51265;53.972;12.286;2024-01-06T08:54:24;100350.94;;;-1.09;100.00
64827;BME280;51265;53.972;12.286;2024-01-06T08:56:51;100348.94;;;-1.13;100.00
64827;BME280;51265;53.972;12.286;2024-01-06T08:59:17;100351.69;;;-1.02;100.00
64827;BME280;51265;53.972;12.286;2024-01-06T09:01:43;100351.69;;;-1.02;100.00
64827;BME280;51265;53.972;12.286;2024-01-06T09:04:09;100354.53;;;-0.96;100.00
64827;BME280;51265;53.972;12.286;2024-01-06T09:06:37;100353.81;;;-1.04;100.00
64827;BME280;51265;53.972;12.286;2024-01-06T09:09:03;100363.94;;;-0.99;100.00
64827;BME280;51265;53.972;12.286;2024-01-06T09:11:29;100363.25;;;-0.94;100.00
64827;BME280;51265;53.972;12.286;2024-01-06T09:13:55;100354.84;;;-1.05;100.00
64827;BME280;51265;53.972;12.286;2024-01-06T09:16:22;100370.75;;;-0.96;100.00
64827;BME280;51265;53.972;12.286;2024-01-06T09:18:48;100369.72;;;-0.95;100.00
64827;BME280;51265;53.972;12.286;2024-01-06T09:21:15;100373.13;;;-0.88;100.00
64827;BME280;51265;53.972;12.286;2024-01-06T09:23:41;100375.25;;;-0.90;100.00
64827;BME280;51265;53.972;12.286;2024-01-06T09:26:07;100382.31;;;-0.89;100.00
64827;BME280;51265;53.972;12.286;2024-01-06T09:28:34;100385.63;;;-0.87;100.00
64827;BME280;51265;53.972;12.286;2024-01-06T09:31:00;100384.41;;;-0.91;100.00
64827;BME280;51265;53.972;12.286;2024-01-06T09:33:26;100379.66;;;-1.08;100.00
64827;BME280;51265;53.972;12.286;2024-01-06T09:35:52;100379.66;;;-1.08;100.00
64827;BME280;51265;53.972;12.286;2024-01-06T09:38:19;100389.09;;;-0.98;100.00
64827;BME280;51265;53.972;12.286;2024-01-06T09:40:45;100382.03;;;-0.99;100.00
64827;BME280;51265;53.972;12.286;2024-01-06T09:43:11;100397.00;;;-0.85;100.00
64827;BME280;51265;53.972;12.286;2024-01-06T09:45:38;100388.09;;;-0.86;100.00
64827;BME280;51265;53.972;12.286;2024-01-06T09:48:10;100385.25;;;-0.91;100.00
64827;BME280;51265;53.972;12.286;2024-01-06T09:50:42;100382.03;;;-0.99;100.00
64827;BME280;51265;53.972;12.286;2024-01-06T09:53:10;100392.66;;;-0.86;100.00
64827;BME280;51265;53.972;12.286;2024-01-06T09:55:37;100395.50;;;-0.81;100.00
64827;BME280;51265;53.972;12.286;2024-01-06T09:58:04;100397.88;;;-0.73;100.00
64827;BME280;51265;53.972;12.286;2024-01-06T10:00:32;100408.63;;;-0.66;100.00
64827;BME280;51265;53.972;12.286;2024-01-06T10:02:58;100386.94;;;-0.78;100.00
64827;BME280;51265;53.972;12.286;2024-01-06T10:05:24;100392.34;;;-0.78;100.00
64827;BME280;51265;53.972;12.286;2024-01-06T10:07:50;100396.69;;;-0.77;100.00
64827;BME280;51265;53.972;12.286;2024-01-06T10:10:16;100364.69;;;-0.92;100.00
64827;BME280;51265;53.972;12.286;2024-01-06T10:12:43;100374.09;;;-1.13;100.00
64827;BME280;51265;53.972;12.286;2024-01-06T10:15:10;100386.69;;;-1.07;100.00
64827;BME280;51265;53.972;12.286;2024-01-06T10:17:38;100399.44;;;-0.95;100.00
64827;BME280;51265;53.972;12.286;2024-01-06T10:20:09;100395.56;;;-0.99;100.00
64827;BME280;51265;53.972;12.286;2024-01-06T10:22:36;100383.31;;;-1.02;100.00
64827;BME280;51265;53.972;12.286;2024-01-06T10:25:07;100393.41;;;-0.79;100.00
64827;BME280;51265;53.972;12.286;2024-01-06T10:27:35;100401.25;;;-0.47;100.00
64827;BME280;51265;53.972;12.286;2024-01-06T10:30:01;100387.34;;;-0.51;100.00
64827;BME280;51265;53.972;12.286;2024-01-06T10:32:31;100390.53;;;-0.54;99.98
64827;BME280;51265;53.972;12.286;2024-01-06T10:34:58;100401.16;;;-0.41;99.75
64827;BME280;51265;53.972;12.286;2024-01-06T10:37:24;100363.28;;;-0.83;100.00
64827;BME280;51265;53.972;12.286;2024-01-06T10:40:17;100380.22;;;-0.76;100.00
64827;BME280;51265;53.972;12.286;2024-01-06T10:42:44;100391.56;;;-0.67;100.00
64827;BME280;51265;53.972;12.286;2024-01-06T10:45:12;100390.38;;;-0.71;100.00
64827;BME280;51265;53.972;12.286;2024-01-06T10:47:40;100396.88;;;-0.60;100.00
64827;BME280;51265;53.972;12.286;2024-01-06T10:50:07;100404.28;;;-0.56;100.00
64827;BME280;51265;53.972;12.286;2024-01-06T10:52:39;100399.59;;;-0.48;100.00
64827;BME280;51265;53.972;12.286;2024-01-06T10:55:06;100403.03;;;-0.41;100.00
64827;BME280;51265;53.972;12.286;2024-01-06T10:57:33;100395.38;;;-0.44;100.00
64827;BME280;51265;53.972;12.286;2024-01-06T11:00:00;100400.00;;;-0.33;99.82
64827;BME280;51265;53.972;12.286;2024-01-06T11:02:27;100385.84;;;-0.47;99.33
64827;BME280;51265;53.972;12.286;2024-01-06T11:04:53;100385.97;;;-0.30;98.55
64827;BME280;51265;53.972;12.286;2024-01-06T11:07:21;100376.00;;;-0.18;97.92
64827;BME280;51265;53.972;12.286;2024-01-06T11:09:55;100374.47;;;-0.14;96.55
64827;BME280;51265;53.972;12.286;2024-01-06T11:12:22;100363.63;;;-0.26;96.08
64827;BME280;51265;53.972;12.286;2024-01-06T11:14:49;100352.88;;;-0.56;95.81
64827;BME280;51265;53.972;12.286;2024-01-06T11:17:51;100374.66;;;-0.51;96.68
64827;BME280;51265;53.972;12.286;2024-01-06T11:20:22;100377.84;;;-0.42;96.62
64827;BME280;51265;53.972;12.286;2024-01-06T11:22:50;100391.16;;;-0.40;97.00
64827;BME280;51265;53.972;12.286;2024-01-06T11:25:20;100396.81;;;-0.30;97.27
64827;BME280;51265;53.972;12.286;2024-01-06T11:27:48;100374.91;;;-0.40;96.70
64827;BME280;51265;53.972;12.286;2024-01-06T11:30:22;100381.41;;;-0.41;96.75
64827;BME280;51265;53.972;12.286;2024-01-06T11:32:51;100384.81;;;-0.34;96.80
64827;BME280;51265;53.972;12.286;2024-01-06T11:35:19;100382.25;;;-0.29;96.69
64827;BME280;51265;53.972;12.286;2024-01-06T11:42:52;100375.28;;;-0.37;95.92
64827;BME280;51265;53.972;12.286;2024-01-06T11:45:24;100376.84;;;-0.29;96.26
64827;BME280;51265;53.972;12.286;2024-01-06T11:47:54;100370.25;;;-0.33;96.67
64827;BME280;51265;53.972;12.286;2024-01-06T11:50:21;100367.53;;;-0.21;96.07
64827;BME280;51265;53.972;12.286;2024-01-06T11:52:47;100369.53;;;-0.17;95.70
64827;BME280;51265;53.972;12.286;2024-01-06T11:55:13;100366.47;;;-0.09;95.87
64827;BME280;51265;53.972;12.286;2024-01-06T11:57:40;100365.41;;;0.16;95.20
64827;BME280;51265;53.972;12.286;2024-01-06T12:00:07;100365.66;;;0.26;94.28
64827;BME280;51265;53.972;12.286;2024-01-06T12:02:33;100353.38;;;0.35;93.09
64827;BME280;51265;53.972;12.286;2024-01-06T12:04:59;100360.53;;;0.41;93.20
64827;BME280;51265;53.972;12.286;2024-01-06T12:07:25;100352.78;;;0.33;92.47
64827;BME280;51265;53.972;12.286;2024-01-06T12:10:01;100353.84;;;0.32;92.75
64827;BME280;51265;53.972;12.286;2024-01-06T12:12:28;100351.84;;;0.39;92.18
64827;BME280;51265;53.972;12.286;2024-01-06T12:14:54;100352.47;;;0.30;91.73
64827;BME280;51265;53.972;12.286;2024-01-06T12:17:21;100342.81;;;0.22;91.59
64827;BME280;51265;53.972;12.286;2024-01-06T12:19:47;100350.44;;;0.25;91.67
64827;BME280;51265;53.972;12.286;2024-01-06T12:22:15;100349.72;;;0.41;91.93
64827;BME280;51265;53.972;12.286;2024-01-06T12:24:41;100365.13;;;0.53;91.52
64827;BME280;51265;53.972;12.286;2024-01-06T12:27:09;100355.72;;;0.55;91.73
64827;BME280;51265;53.972;12.286;2024-01-06T12:29:40;100360.97;;;0.62;91.41
64827;BME280;51265;53.972;12.286;2024-01-06T12:32:07;100367.66;;;0.71;91.18
64827;BME280;51265;53.972;12.286;2024-01-06T12:34:34;100380.25;;;0.89;91.19
64827;BME280;51265;53.972;12.286;2024-01-06T12:37:01;100380.47;;;0.87;91.80